createdAt,value
2019-01-04T00:00:49.820Z,99.90
2019-01-04T00:03:21.379Z,99.90
2019-01-04T00:05:51.314Z,99.90
2019-01-04T00:08:21.041Z,99.90
2019-01-04T00:10:50.781Z,99.90
2019-01-04T00:13:23.068Z,99.90
2019-01-04T00:15:52.798Z,99.90
2019-01-04T00:18:22.482Z,99.90
2019-01-04T00:20:52.252Z,99.90
2019-01-04T00:23:21.997Z,99.90
2019-01-04T00:25:52.278Z,99.90
2019-01-04T00:28:21.984Z,99.90
2019-01-04T00:30:51.829Z,99.90
2019-01-04T00:33:21.575Z,99.90
2019-01-04T00:35:51.598Z,99.90
2019-01-04T00:38:21.426Z,99.90
2019-01-04T00:40:51.178Z,99.90
2019-01-04T00:43:20.977Z,99.90
2019-01-04T00:45:50.803Z,99.90
2019-01-04T00:48:20.477Z,99.90
2019-01-04T00:50:50.319Z,99.90
2019-01-04T00:53:20.098Z,99.90
2019-01-04T00:56:17.409Z,99.90
2019-01-04T00:59:34.858Z,99.90
2019-01-04T01:02:33.678Z,99.90
2019-01-04T01:05:56.130Z,99.90
2019-01-04T01:09:03.562Z,99.90
2019-01-04T01:12:15.785Z,99.90
2019-01-04T01:15:27.026Z,99.90
2019-01-04T01:18:31.650Z,99.90
2019-01-04T01:21:34.434Z,99.90
2019-01-04T01:24:38.018Z,99.90
2019-01-04T01:27:47.833Z,99.90
2019-01-04T01:30:46.778Z,99.90
2019-01-04T01:33:41.430Z,99.90
2019-01-04T01:36:30.244Z,99.90
2019-01-04T01:39:47.866Z,99.90
2019-01-04T01:43:03.982Z,99.90
2019-01-04T01:46:20.037Z,99.90
2019-01-04T01:49:34.133Z,99.90
2019-01-04T01:52:12.890Z,99.90
2019-01-04T01:54:42.559Z,99.90
2019-01-04T01:57:12.531Z,99.90
2019-01-04T01:59:42.309Z,99.90
2019-01-04T02:02:11.990Z,99.90
2019-01-04T02:04:41.734Z,99.90
2019-01-04T02:07:11.494Z,99.90
2019-01-04T02:09:42.414Z,99.90
2019-01-04T02:12:12.215Z,99.90
2019-01-04T02:14:41.906Z,99.90
2019-01-04T02:17:11.655Z,99.90
2019-01-04T02:19:41.350Z,99.90
2019-01-04T02:22:11.032Z,99.90
2019-01-04T02:24:40.734Z,99.90
2019-01-04T02:27:10.422Z,99.90
2019-01-04T02:29:40.105Z,99.90
2019-01-04T02:32:09.862Z,99.90
2019-01-04T02:34:39.718Z,99.90
2019-01-04T02:37:09.414Z,99.90
2019-01-04T02:39:39.489Z,99.90
2019-01-04T02:42:09.170Z,99.90
2019-01-04T02:44:38.858Z,99.90
2019-01-04T02:47:08.533Z,99.90
2019-01-04T02:49:38.274Z,99.90
2019-01-04T02:52:07.970Z,99.90
2019-01-04T02:54:37.663Z,99.90
2019-01-04T02:57:07.414Z,99.90
2019-01-04T02:59:37.100Z,99.90
2019-01-04T03:02:08.902Z,99.90
2019-01-04T03:04:38.577Z,99.90
2019-01-04T03:07:08.746Z,99.90
2019-01-04T03:09:38.435Z,99.90
2019-01-04T03:12:08.122Z,99.90
2019-01-04T03:14:37.809Z,99.90
2019-01-04T03:17:07.587Z,99.90
2019-01-04T03:19:37.276Z,99.90
2019-01-04T03:22:07.290Z,99.90
2019-01-04T03:24:36.964Z,99.90
2019-01-04T03:27:06.642Z,99.90
2019-01-04T03:29:36.325Z,99.90
2019-01-04T03:32:06.289Z,99.90
2019-01-04T03:34:36.071Z,99.90
2019-01-04T03:37:05.785Z,99.90
2019-01-04T03:39:35.461Z,99.90
2019-01-04T03:42:05.614Z,99.90
2019-01-04T03:44:35.374Z,99.90
2019-01-04T03:47:05.151Z,99.90
2019-01-04T03:49:34.903Z,99.90
2019-01-04T03:52:04.590Z,99.90
2019-01-04T03:54:34.355Z,99.90
2019-01-04T03:57:04.158Z,99.90
2019-01-04T03:59:33.823Z,99.90
2019-01-04T04:02:03.612Z,99.90
2019-01-04T04:04:33.294Z,99.90
2019-01-04T04:07:03.079Z,99.90
2019-01-04T04:09:32.766Z,99.90
2019-01-04T04:12:02.469Z,99.90
2019-01-04T04:14:32.170Z,99.90
2019-01-04T04:17:01.929Z,99.90
2019-01-04T04:19:31.694Z,99.90
2019-01-04T04:22:01.371Z,99.90
2019-01-04T04:24:31.051Z,99.90
2019-01-04T04:27:00.727Z,99.90
2019-01-04T04:29:30.762Z,99.90
2019-01-04T04:32:00.514Z,99.90
2019-01-04T04:34:30.247Z,99.90
2019-01-04T04:36:59.939Z,99.90
2019-01-04T04:39:29.609Z,99.90
2019-01-04T04:41:59.406Z,99.90
2019-01-04T04:44:29.082Z,99.90
2019-01-04T04:46:58.809Z,99.90
2019-01-04T04:49:28.475Z,99.90
2019-01-04T04:51:58.163Z,99.90
2019-01-04T04:54:27.871Z,99.90
2019-01-04T04:56:57.547Z,99.90
2019-01-04T04:59:28.002Z,99.90
2019-01-04T05:01:57.713Z,99.90
2019-01-04T05:04:27.379Z,99.90
2019-01-04T05:06:57.076Z,99.90
2019-01-04T05:09:26.745Z,99.90
2019-01-04T05:11:56.454Z,99.90
2019-01-04T05:14:26.115Z,99.90
2019-01-04T05:16:56.066Z,99.90
2019-01-04T05:19:25.742Z,99.90
2019-01-04T05:21:55.438Z,99.90
2019-01-04T05:24:25.117Z,99.90
2019-01-04T05:26:54.791Z,99.90
2019-01-04T05:29:24.518Z,99.90
2019-01-04T05:31:54.216Z,99.90
2019-01-04T05:34:23.903Z,99.90
2019-01-04T05:36:53.592Z,99.90
2019-01-04T05:39:23.263Z,99.90
2019-01-04T05:41:53.487Z,99.90
2019-01-04T05:44:23.161Z,99.90
2019-01-04T05:46:52.850Z,99.90
2019-01-04T05:49:22.527Z,99.90
2019-01-04T05:51:52.207Z,99.90
2019-01-04T05:54:21.887Z,99.90
2019-01-04T05:56:51.623Z,99.90
2019-01-04T05:59:21.394Z,99.90
2019-01-04T06:01:51.086Z,99.90
2019-01-04T06:04:39.989Z,99.90
2019-01-04T06:07:09.654Z,99.90
2019-01-04T06:09:39.374Z,99.90
2019-01-04T06:12:09.391Z,99.90
2019-01-04T06:14:39.118Z,99.90
2019-01-04T06:17:08.818Z,99.90
2019-01-04T06:19:38.562Z,99.90
2019-01-04T06:22:08.247Z,99.90
2019-01-04T06:24:37.926Z,99.90
2019-01-04T06:27:07.651Z,99.90
2019-01-04T06:29:37.374Z,99.90
2019-01-04T06:32:07.150Z,99.90
2019-01-04T06:34:37.436Z,99.90
2019-01-04T06:37:07.332Z,99.90
2019-01-04T06:39:37.028Z,99.90
2019-01-04T06:42:06.871Z,99.90
2019-01-04T06:44:36.633Z,99.90
2019-01-04T06:47:14.210Z,99.90
2019-01-04T06:49:44.022Z,99.90
2019-01-04T06:52:13.838Z,99.90
2019-01-04T06:55:32.146Z,99.90
2019-01-04T06:58:01.829Z,99.90
2019-01-04T07:00:31.578Z,99.90
2019-01-04T07:03:01.262Z,99.90
2019-01-04T07:05:31.789Z,99.90
2019-01-04T07:08:01.665Z,99.90
2019-01-04T07:10:31.428Z,99.90
2019-01-04T07:13:01.115Z,99.90
2019-01-04T07:15:30.958Z,99.90
2019-01-04T07:18:00.773Z,99.90
2019-01-04T07:20:33.486Z,99.90
2019-01-04T07:23:03.241Z,99.90
2019-01-04T07:25:32.963Z,99.90
2019-01-04T07:28:02.674Z,99.90
2019-01-04T07:30:35.705Z,99.90
2019-01-04T07:33:05.558Z,99.90
2019-01-04T07:35:35.253Z,99.90
2019-01-04T07:38:04.958Z,99.90
2019-01-04T07:40:34.657Z,99.90
2019-01-04T07:43:04.508Z,99.90
2019-01-04T07:45:37.293Z,99.90
2019-01-04T07:48:07.398Z,99.90
2019-01-04T07:50:37.082Z,99.90
2019-01-04T07:53:06.803Z,99.90
2019-01-04T07:55:36.485Z,99.90
2019-01-04T07:58:06.298Z,99.90
2019-01-04T08:00:36.470Z,99.90
2019-01-04T08:03:19.941Z,99.90
2019-01-04T08:05:50.211Z,99.90
2019-01-04T08:08:19.942Z,99.90
2019-01-04T08:10:49.770Z,99.90
2019-01-04T08:13:19.450Z,99.90
2019-01-04T08:15:49.182Z,99.90
2019-01-04T08:18:19.299Z,99.90
2019-01-04T08:20:49.010Z,99.90
2019-01-04T08:23:19.975Z,99.90
2019-01-04T08:25:49.770Z,99.90
2019-01-04T08:28:19.485Z,99.90
2019-01-04T08:30:49.175Z,99.90
2019-01-04T08:33:18.858Z,99.90
2019-01-04T08:35:48.569Z,99.90
2019-01-04T08:38:18.622Z,99.90
2019-01-04T08:40:48.314Z,99.90
2019-01-04T08:43:18.022Z,99.70
2019-01-04T08:45:47.748Z,99.60
2019-01-04T08:48:17.458Z,99.50
2019-01-04T08:50:47.235Z,99.60
2019-01-04T08:53:16.966Z,99.60
2019-01-04T08:55:46.637Z,99.50
2019-01-04T08:58:16.370Z,99.60
2019-01-04T09:00:47.294Z,99.70
2019-01-04T09:03:16.976Z,99.40
2019-01-04T09:05:47.075Z,99.30
2019-01-04T09:08:16.750Z,99.40
2019-01-04T09:10:46.476Z,99.50
2019-01-04T09:13:16.274Z,99.40
2019-01-04T09:15:46.064Z,99.40
2019-01-04T09:18:15.821Z,99.50
2019-01-04T09:20:45.811Z,99.10
2019-01-04T09:23:15.554Z,98.90
2019-01-04T09:25:45.319Z,98.80
2019-01-04T09:28:18.130Z,99.00
2019-01-04T09:30:46.938Z,99.00
2019-01-04T09:33:16.610Z,99.20
2019-01-04T09:35:46.366Z,99.30
2019-01-04T09:38:16.124Z,99.60
2019-01-04T09:40:45.846Z,99.90
2019-01-04T09:43:15.662Z,99.90
2019-01-04T09:45:45.350Z,99.90
2019-01-04T09:48:15.038Z,99.90
2019-01-04T09:50:44.745Z,99.90
2019-01-04T09:53:14.412Z,99.90
2019-01-04T09:55:44.095Z,99.40
2019-01-04T09:58:13.850Z,99.10
2019-01-04T10:00:43.535Z,98.90
2019-01-04T10:03:13.214Z,98.80
2019-01-04T10:05:42.893Z,98.60
2019-01-04T10:08:12.588Z,98.70
2019-01-04T10:10:42.259Z,98.60
2019-01-04T10:13:11.972Z,98.30
2019-01-04T10:15:41.662Z,98.20
2019-01-04T10:18:11.409Z,98.30
2019-01-04T10:20:41.090Z,98.00
2019-01-04T10:23:10.798Z,98.10
2019-01-04T10:25:40.478Z,98.10
2019-01-04T10:28:10.171Z,98.10
2019-01-04T10:30:39.962Z,98.20
2019-01-04T10:33:09.803Z,98.30
2019-01-04T10:35:39.514Z,98.50
2019-01-04T10:38:09.355Z,98.50
2019-01-04T10:40:39.034Z,98.80
2019-01-04T10:43:08.786Z,98.40
2019-01-04T10:45:38.457Z,97.90
2019-01-04T10:48:08.514Z,97.80
2019-01-04T10:50:38.198Z,97.70
2019-01-04T10:53:08.238Z,97.50
2019-01-04T10:55:37.924Z,97.70
2019-01-04T10:58:07.724Z,97.70
2019-01-04T11:00:37.466Z,97.60
2019-01-04T11:03:07.310Z,97.70
2019-01-04T11:05:36.994Z,97.60
2019-01-04T11:08:06.759Z,97.40
2019-01-04T11:10:36.426Z,97.60
2019-01-04T11:13:06.162Z,97.40
2019-01-04T11:15:35.959Z,97.50
2019-01-04T11:18:09.920Z,97.80
2019-01-04T11:20:47.922Z,97.80
2019-01-04T11:24:00.925Z,98.10
2019-01-04T11:26:37.705Z,98.20
2019-01-04T11:29:37.310Z,98.40
2019-01-04T11:32:18.498Z,98.80
2019-01-04T11:35:27.763Z,98.90
2019-01-04T11:38:48.490Z,98.80
2019-01-04T11:41:54.633Z,98.70
2019-01-04T11:45:11.952Z,98.40
2019-01-04T11:48:14.294Z,98.10
2019-01-04T11:51:07.962Z,98.20
2019-01-04T11:53:37.654Z,97.90
2019-01-04T11:56:07.414Z,97.80
2019-01-04T11:58:37.099Z,97.80
2019-01-04T12:01:06.961Z,97.90
2019-01-04T12:03:36.772Z,98.00
2019-01-04T12:06:06.466Z,98.20
2019-01-04T12:08:36.157Z,98.20
2019-01-04T12:11:05.923Z,98.30
2019-01-04T12:13:35.609Z,98.50
2019-01-04T12:16:05.449Z,98.70
2019-01-04T12:18:35.167Z,98.80
2019-01-04T12:21:04.844Z,99.20
2019-01-04T12:23:34.534Z,98.80
2019-01-04T12:26:04.382Z,98.40
2019-01-04T12:28:34.093Z,98.50
2019-01-04T12:31:03.803Z,98.50
2019-01-04T12:33:33.542Z,98.40
2019-01-04T12:36:03.330Z,98.20
2019-01-04T12:38:33.026Z,97.90
2019-01-04T12:41:02.722Z,97.60
2019-01-04T12:43:32.470Z,97.30
2019-01-04T12:46:02.189Z,97.20
2019-01-04T12:48:31.918Z,97.50
2019-01-04T12:51:01.607Z,97.80
2019-01-04T12:53:31.285Z,97.40
2019-01-04T12:56:00.991Z,97.20
2019-01-04T12:58:30.682Z,97.20
2019-01-04T13:01:00.381Z,97.40
2019-01-04T13:03:30.052Z,97.90
2019-01-04T13:05:59.736Z,98.20
2019-01-04T13:08:29.482Z,98.40
2019-01-04T13:10:59.174Z,98.60
2019-01-04T13:13:28.866Z,99.00
2019-01-04T13:15:58.614Z,98.90
2019-01-04T13:18:28.291Z,98.70
2019-01-04T13:20:58.039Z,98.40
2019-01-04T13:23:27.774Z,98.40
2019-01-04T13:25:57.462Z,98.60
2019-01-04T13:28:27.140Z,98.30
2019-01-04T13:30:56.982Z,98.20
2019-01-04T13:33:26.699Z,98.10
2019-01-04T13:35:56.365Z,98.10
2019-01-04T13:38:26.130Z,97.60
2019-01-04T13:40:55.798Z,97.80
2019-01-04T13:43:25.478Z,97.80
2019-01-04T13:45:55.162Z,97.80
2019-01-04T13:48:24.895Z,97.60
2019-01-04T13:50:54.738Z,97.70
2019-01-04T13:53:24.410Z,97.50
2019-01-04T13:55:54.097Z,97.60
2019-01-04T13:58:24.811Z,97.60
2019-01-04T14:00:54.490Z,97.30
2019-01-04T14:03:24.279Z,97.30
2019-01-04T14:05:53.949Z,97.60
2019-01-04T14:08:23.615Z,97.80
2019-01-04T14:10:53.328Z,97.80
2019-01-04T14:13:23.090Z,98.00
2019-01-04T14:15:52.770Z,98.20
2019-01-04T14:18:22.555Z,98.40
2019-01-04T14:20:52.252Z,98.60
2019-01-04T14:23:21.957Z,98.80
2019-01-04T14:25:51.741Z,99.10
2019-01-04T14:28:21.474Z,99.20
2019-01-04T14:30:51.158Z,99.10
2019-01-04T14:33:20.851Z,98.90
2019-01-04T14:35:50.526Z,99.20
2019-01-04T14:38:20.229Z,99.20
2019-01-04T14:40:49.989Z,99.10
2019-01-04T14:43:19.738Z,99.10
2019-01-04T14:45:49.428Z,99.20
2019-01-04T14:48:19.134Z,99.20
2019-01-04T14:50:48.907Z,99.10
2019-01-04T14:53:18.698Z,99.00
2019-01-04T14:55:48.454Z,99.20
2019-01-04T14:58:18.214Z,99.20
2019-01-04T15:00:47.907Z,99.00
2019-01-04T15:03:17.646Z,99.10
2019-01-04T15:05:50.426Z,99.20
2019-01-04T15:08:18.798Z,99.10
2019-01-04T15:10:48.498Z,99.10
2019-01-04T15:13:18.173Z,99.10
2019-01-04T15:15:47.851Z,99.20
2019-01-04T15:18:17.626Z,98.90
2019-01-04T15:20:47.334Z,98.90
2019-01-04T15:23:17.020Z,98.90
2019-01-04T15:25:46.695Z,99.10
2019-01-04T15:28:16.479Z,99.30
2019-01-04T15:30:46.170Z,99.50
2019-01-04T15:33:15.863Z,99.90
2019-01-04T15:35:45.648Z,99.70
2019-01-04T15:38:15.383Z,99.90
2019-01-04T15:40:45.077Z,99.90
2019-01-04T15:43:14.844Z,99.90
2019-01-04T15:45:44.568Z,99.90
2019-01-04T15:48:14.626Z,99.90
2019-01-04T15:50:44.310Z,99.90
2019-01-04T15:53:14.062Z,99.90
2019-01-04T15:55:44.454Z,99.90
2019-01-04T15:58:14.213Z,99.90
2019-01-04T16:00:43.889Z,99.90
2019-01-04T16:03:13.650Z,99.90
2019-01-04T16:05:43.338Z,99.90
2019-01-04T16:08:13.271Z,99.90
2019-01-04T16:10:42.998Z,99.90
2019-01-04T16:13:12.731Z,99.90
2019-01-04T16:15:42.410Z,99.90
2019-01-04T16:18:12.162Z,99.90
2019-01-04T16:20:41.840Z,99.90
2019-01-04T16:23:11.517Z,99.90
2019-01-04T16:25:41.214Z,99.90
2019-01-04T16:28:10.889Z,99.90
2019-01-04T16:30:40.617Z,99.90
2019-01-04T16:33:10.329Z,99.90
2019-01-04T16:35:40.056Z,99.90
2019-01-04T16:38:09.827Z,99.90
2019-01-04T16:40:39.542Z,99.90
2019-01-04T16:43:09.492Z,99.90
2019-01-04T16:45:39.490Z,99.90
2019-01-04T16:48:09.186Z,99.90
2019-01-04T16:50:38.875Z,99.90
2019-01-04T16:53:08.563Z,99.90
2019-01-04T16:55:38.261Z,99.90
2019-01-04T16:58:07.934Z,99.90
2019-01-04T17:00:37.875Z,99.90
2019-01-04T17:03:07.558Z,99.90
2019-01-04T17:05:37.266Z,99.90
2019-01-04T17:08:06.967Z,99.90
2019-01-04T17:10:37.514Z,99.90
2019-01-04T17:13:07.631Z,99.90
2019-01-04T17:15:37.374Z,99.90
2019-01-04T17:18:07.081Z,99.90
2019-01-04T17:20:36.758Z,99.90
2019-01-04T17:23:06.590Z,99.90
2019-01-04T17:25:36.277Z,99.90
2019-01-04T17:28:05.981Z,99.90
2019-01-04T17:30:35.760Z,99.90
2019-01-04T17:33:05.543Z,99.90
2019-01-04T17:35:35.220Z,99.90
2019-01-04T17:38:04.903Z,99.90
2019-01-04T17:40:34.662Z,99.90
2019-01-04T17:43:04.489Z,99.90
2019-01-04T17:45:34.198Z,99.90
2019-01-04T17:48:03.878Z,99.90
2019-01-04T17:50:33.695Z,99.90
2019-01-04T17:53:03.371Z,99.90
2019-01-04T17:55:33.044Z,99.90
2019-01-04T17:58:02.726Z,99.90
2019-01-04T18:00:32.521Z,99.90
2019-01-04T18:03:02.362Z,99.90
2019-01-04T18:05:32.215Z,99.90
2019-01-04T18:08:01.872Z,99.90
2019-01-04T18:10:31.615Z,99.90
2019-01-04T18:13:01.355Z,99.90
2019-01-04T18:15:31.418Z,99.90
2019-01-04T18:18:01.089Z,99.90
2019-01-04T18:20:30.854Z,99.90
2019-01-04T18:23:00.705Z,99.90
2019-01-04T18:25:30.490Z,99.90
2019-01-04T18:28:00.286Z,99.90
2019-01-04T18:30:30.005Z,99.90
2019-01-04T18:32:59.941Z,99.90
2019-01-04T18:35:30.567Z,99.90
2019-01-04T18:38:00.331Z,99.90
2019-01-04T18:40:30.003Z,99.90
2019-01-04T18:42:59.884Z,99.90
2019-01-04T18:45:29.582Z,99.90
2019-01-04T18:47:59.272Z,99.90
2019-01-04T18:50:29.177Z,99.90
2019-01-04T18:52:58.990Z,99.90
2019-01-04T18:55:28.679Z,99.90
2019-01-04T18:57:58.453Z,99.90
2019-01-04T19:00:28.293Z,99.90
2019-01-04T19:02:57.978Z,99.90
2019-01-04T19:05:33.629Z,99.90
2019-01-04T19:08:04.098Z,99.90
2019-01-04T19:10:34.762Z,99.90
2019-01-04T19:13:04.521Z,99.90
2019-01-04T19:15:34.230Z,99.90
2019-01-04T19:18:04.270Z,99.90
2019-01-04T19:20:34.108Z,99.90
2019-01-04T19:23:03.957Z,99.90
2019-01-04T19:25:33.655Z,99.90
2019-01-04T19:28:03.437Z,99.90
2019-01-04T19:30:33.155Z,99.90
2019-01-04T19:33:03.733Z,99.90
2019-01-04T19:35:33.519Z,99.90
2019-01-04T19:38:03.204Z,99.90
2019-01-04T19:40:33.078Z,99.90
2019-01-04T19:43:02.826Z,99.90
2019-01-04T19:45:33.527Z,99.90
2019-01-04T19:48:03.220Z,99.90
2019-01-04T19:50:32.914Z,99.90
2019-01-04T19:53:02.719Z,99.90
2019-01-04T19:55:32.560Z,99.90
2019-01-04T19:58:02.234Z,99.90
2019-01-04T20:00:31.992Z,99.90
2019-01-04T20:03:01.901Z,99.90
2019-01-04T20:06:37.141Z,99.90
2019-01-04T20:10:01.303Z,99.90
2019-01-04T20:13:39.661Z,99.90
2019-01-04T20:16:38.202Z,99.90
2019-01-04T20:19:30.046Z,99.90
2019-01-04T20:22:17.736Z,99.90
2019-01-04T20:25:05.263Z,99.90
2019-01-04T20:27:50.167Z,99.90
2019-01-04T20:30:47.970Z,99.90
2019-01-04T20:33:45.282Z,99.90
2019-01-04T20:36:43.473Z,99.90
2019-01-04T20:39:50.786Z,99.90
2019-01-04T20:42:38.254Z,99.90
2019-01-04T20:45:22.028Z,99.90
2019-01-04T20:48:10.978Z,99.90
2019-01-04T20:51:02.652Z,99.90
2019-01-04T20:53:50.422Z,99.90
2019-01-04T20:56:45.467Z,99.90
2019-01-04T20:59:33.014Z,99.90
2019-01-04T21:02:20.659Z,99.90
2019-01-04T21:05:05.066Z,99.90
2019-01-04T21:07:52.866Z,99.90
2019-01-04T21:10:57.070Z,99.90
2019-01-04T21:13:57.642Z,99.90
2019-01-04T21:16:48.329Z,99.90
2019-01-04T21:19:35.996Z,99.90
2019-01-04T21:22:19.654Z,99.90
2019-01-04T21:25:04.574Z,99.90
2019-01-04T21:27:53.367Z,99.90
2019-01-04T21:30:40.784Z,99.90
2019-01-04T21:33:27.621Z,99.90
2019-01-04T21:36:24.586Z,99.90
2019-01-04T21:39:12.569Z,99.90
2019-01-04T21:42:03.053Z,99.90
2019-01-04T21:44:50.822Z,99.90
2019-01-04T21:47:38.430Z,99.90
2019-01-04T21:50:22.714Z,99.90
2019-01-04T21:53:14.550Z,99.90
2019-01-04T21:55:59.166Z,99.90
2019-01-04T21:58:56.663Z,99.90
2019-01-04T22:01:44.142Z,99.90
2019-01-04T22:04:32.838Z,99.90
2019-01-04T22:07:20.822Z,99.90
2019-01-04T22:10:01.874Z,99.90
2019-01-04T22:12:53.202Z,99.90
2019-01-04T22:15:36.194Z,99.90
2019-01-04T22:18:23.853Z,99.90
2019-01-04T22:21:12.790Z,99.90
2019-01-04T22:24:01.654Z,99.90
2019-01-04T22:26:49.663Z,99.90
2019-01-04T22:29:40.763Z,99.90
2019-01-04T22:32:28.182Z,99.90
2019-01-04T22:35:06.937Z,99.90
2019-01-04T22:37:54.722Z,99.90
2019-01-04T22:40:42.584Z,99.90
2019-01-04T22:43:30.490Z,99.90
2019-01-04T22:46:18.286Z,99.90
2019-01-04T22:49:22.430Z,99.90
2019-01-04T22:52:10.058Z,99.90
2019-01-04T22:54:57.690Z,99.90
2019-01-04T22:57:45.366Z,99.90
2019-01-04T23:00:52.851Z,99.90
2019-01-04T23:03:50.686Z,99.90
2019-01-04T23:06:47.731Z,99.90
2019-01-04T23:09:35.309Z,99.90
2019-01-04T23:12:23.186Z,99.90
2019-01-04T23:15:27.542Z,99.90
2019-01-04T23:18:15.237Z,99.90
2019-01-04T23:21:06.938Z,99.90
2019-01-04T23:23:54.926Z,99.90
2019-01-04T23:26:55.599Z,99.90
2019-01-04T23:29:41.854Z,99.90
2019-01-04T23:32:45.606Z,99.90
2019-01-04T23:35:30.235Z,99.90
2019-01-04T23:38:20.746Z,99.90
2019-01-04T23:41:15.778Z,99.90
2019-01-04T23:44:06.708Z,99.90
2019-01-04T23:46:55.533Z,99.90
2019-01-04T23:49:46.974Z,99.90
2019-01-04T23:52:31.071Z,99.90
2019-01-04T23:55:18.377Z,99.90
2019-01-04T23:58:08.894Z,99.90
